createdAt,value
2024-04-10T00:01:52.725Z,99584.88
2024-04-10T00:04:20.312Z,99590.34
2024-04-10T00:06:47.399Z,99579.03
2024-04-10T00:09:14.912Z,99597.13
2024-04-10T00:11:42.177Z,99593.72
2024-04-10T00:14:09.831Z,99600.69
2024-04-10T00:16:36.997Z,99615.66
2024-04-10T00:19:06.203Z,99606.69
2024-04-10T00:21:36.405Z,99606.28
2024-04-10T00:24:06.497Z,99615.66
2024-04-10T00:26:33.777Z,99605.75
2024-04-10T00:29:05.245Z,99611.31
2024-04-10T00:31:32.411Z,99628.63
2024-04-10T00:34:00.180Z,99617.44
2024-04-10T00:36:28.348Z,99626.63
2024-04-10T00:38:55.824Z,99628.75
2024-04-10T00:41:23.300Z,99612.72
2024-04-10T00:43:50.821Z,99619.13
2024-04-10T00:46:22.413Z,99620.94
2024-04-10T00:48:51.242Z,99638.88
2024-04-10T00:51:19.830Z,99641.66
2024-04-10T00:53:47.681Z,99632.91
2024-04-10T00:56:15.470Z,99651.59
2024-04-10T00:58:43.171Z,99651.38
2024-04-10T01:01:11.019Z,99662.25
2024-04-10T01:03:43.098Z,99664.25
2024-04-10T01:06:11.267Z,99669.59
2024-04-10T01:08:39.291Z,99676.88
2024-04-10T01:11:10.103Z,99696.31
2024-04-10T01:13:37.739Z,99689.00
2024-04-10T01:16:05.281Z,99701.41
2024-04-10T01:18:33.035Z,99693.72
2024-04-10T01:21:00.319Z,99700.31
2024-04-10T01:23:27.934Z,99693.78
2024-04-10T01:25:55.242Z,99706.19
2024-04-10T01:28:25.151Z,99702.44
2024-04-10T01:30:52.665Z,99702.44
2024-04-10T01:33:20.261Z,99703.72
2024-04-10T01:35:49.893Z,99697.19
2024-04-10T01:38:19.823Z,99705.53
2024-04-10T01:40:46.890Z,99722.16
2024-04-10T01:43:17.290Z,99730.28
2024-04-10T01:45:44.361Z,99718.22
2024-04-10T01:48:12.251Z,99720.00
2024-04-10T01:50:39.985Z,99732.41
2024-04-10T01:53:07.477Z,99730.34
2024-04-10T01:55:34.496Z,99739.22
2024-04-10T01:58:02.417Z,99745.28
2024-04-10T02:00:29.613Z,99738.25
2024-04-10T02:02:57.159Z,99758.94
2024-04-10T02:05:24.359Z,99760.00
2024-04-10T02:07:51.937Z,99770.34
2024-04-10T02:10:19.038Z,99762.13
2024-04-10T02:12:46.460Z,99773.06
2024-04-10T02:15:13.652Z,99769.06
2024-04-10T02:17:41.293Z,99768.09
2024-04-10T02:20:08.975Z,99810.47
2024-04-10T02:22:36.455Z,99812.56
2024-04-10T02:25:03.551Z,99827.69
2024-04-10T02:27:33.976Z,99831.78
2024-04-10T02:30:01.151Z,99835.16
2024-04-10T02:32:31.333Z,99839.22
2024-04-10T02:34:58.504Z,99839.56
2024-04-10T02:37:25.971Z,99837.09
2024-04-10T02:39:53.524Z,99852.00
2024-04-10T02:42:20.944Z,99853.03
2024-04-10T02:44:52.821Z,99875.25
2024-04-10T02:48:57.716Z,99894.00
2024-04-10T02:51:25.285Z,99894.81
2024-04-10T02:53:52.371Z,99905.22
2024-04-10T02:56:22.225Z,99911.56
2024-04-10T02:58:50.379Z,99908.81
2024-04-10T03:01:18.096Z,99909.38
2024-04-10T03:03:48.122Z,99919.19
2024-04-10T03:06:15.738Z,99910.69
2024-04-10T03:08:42.934Z,99921.81
2024-04-10T03:11:11.745Z,99932.66
2024-04-10T03:13:42.384Z,99932.16
2024-04-10T03:16:10.650Z,99936.22
2024-04-10T03:18:37.803Z,99938.22
2024-04-10T03:21:05.398Z,99931.91
2024-04-10T03:23:32.807Z,99939.22
2024-04-10T03:26:07.741Z,99945.00
2024-04-10T03:28:37.493Z,99945.22
2024-04-10T03:31:06.149Z,99953.03
2024-04-10T03:33:33.814Z,99964.56
2024-04-10T03:36:01.324Z,99959.03
2024-04-10T03:38:30.935Z,99957.53
2024-04-10T03:40:58.607Z,99972.59
2024-04-10T03:43:25.695Z,99968.34
2024-04-10T03:45:54.355Z,99973.88
2024-04-10T03:48:21.747Z,99979.41
2024-04-10T03:50:49.511Z,99972.88
2024-04-10T03:53:16.945Z,99974.66
2024-04-10T03:55:44.500Z,99998.81
2024-04-10T03:58:11.603Z,99986.44
2024-04-10T04:00:39.118Z,100011.13
2024-04-10T04:03:06.495Z,100011.38
2024-04-10T04:05:35.744Z,100007.38
2024-04-10T04:08:03.524Z,99998.03
2024-04-10T04:10:30.672Z,100021.72
2024-04-10T04:12:59.017Z,100025.75
2024-04-10T04:15:26.158Z,100024.97
2024-04-10T04:17:53.655Z,100025.50
2024-04-10T04:20:21.463Z,100033.03
2024-04-10T04:22:49.227Z,100032.03
2024-04-10T04:25:17.642Z,100046.63
2024-04-10T04:27:45.004Z,100039.06
2024-04-10T04:30:14.159Z,100055.44
2024-04-10T04:32:42.110Z,100045.38
2024-04-10T04:35:09.728Z,100059.22
2024-04-10T04:37:37.267Z,100056.69
2024-04-10T04:40:07.857Z,100064.50
2024-04-10T04:42:35.355Z,100069.25
2024-04-10T04:45:02.684Z,100077.81
2024-04-10T04:47:30.268Z,100074.25
2024-04-10T04:49:57.579Z,100083.09
2024-04-10T04:52:25.205Z,100079.03
2024-04-10T04:54:52.258Z,100073.81
2024-04-10T04:57:21.057Z,100082.41
2024-04-10T04:59:48.602Z,100084.91
2024-04-10T05:02:18.508Z,100084.91
2024-04-10T05:05:01.941Z,100092.47
2024-04-10T05:07:30.147Z,100093.50
2024-04-10T05:09:57.202Z,100097.50
2024-04-10T05:12:24.716Z,100101.81
2024-04-10T05:14:54.580Z,100110.38
2024-04-10T05:17:22.298Z,100108.59
2024-04-10T05:19:49.703Z,100109.88
2024-04-10T05:22:17.178Z,100114.13
2024-04-10T05:24:44.931Z,100136.53
2024-04-10T05:27:22.604Z,100130.25
2024-04-10T05:30:01.344Z,100125.94
2024-04-10T05:32:29.493Z,100139.78
2024-04-10T05:34:57.194Z,100142.81
2024-04-10T05:37:24.731Z,100158.16
2024-04-10T05:40:15.219Z,100169.50
2024-04-10T05:42:43.333Z,100173.56
2024-04-10T05:45:11.437Z,100181.34
2024-04-10T05:47:40.028Z,100194.16
2024-04-10T05:50:11.085Z,100190.63
2024-04-10T05:52:41.380Z,100199.19
2024-04-10T05:55:08.859Z,100204.47
2024-04-10T05:57:36.413Z,100207.75
2024-04-10T06:00:04.795Z,100223.88
2024-04-10T06:02:41.017Z,100223.34
2024-04-10T06:05:09.254Z,100225.13
2024-04-10T06:07:43.920Z,100228.66
2024-04-10T06:10:12.316Z,100224.38
2024-04-10T06:12:39.962Z,100239.69
2024-04-10T06:15:07.182Z,100224.81
2024-04-10T06:17:35.070Z,100232.38
2024-04-10T06:20:06.501Z,100239.41
2024-04-10T06:22:34.074Z,100230.06
2024-04-10T06:25:01.222Z,100241.66
2024-04-10T06:27:30.100Z,100246.66
2024-04-10T06:29:58.417Z,100250.69
2024-04-10T06:32:26.175Z,100246.13
2024-04-10T06:34:53.436Z,100242.59
2024-04-10T06:37:20.952Z,100249.69
2024-04-10T06:39:51.000Z,100258.50
2024-04-10T06:42:18.467Z,100262.25
2024-04-10T06:44:47.938Z,100261.75
2024-04-10T06:47:15.566Z,100262.53
2024-04-10T06:49:42.937Z,100275.16
2024-04-10T06:52:10.469Z,100280.72
2024-04-10T06:54:37.641Z,100279.44
2024-04-10T06:57:05.294Z,100279.94
2024-04-10T06:59:35.183Z,100278.38
2024-04-10T07:02:03.161Z,100271.59
2024-04-10T07:04:31.558Z,100279.91
2024-04-10T07:07:02.820Z,100280.88
2024-04-10T07:09:30.027Z,100286.16
2024-04-10T07:11:57.696Z,100286.38
2024-04-10T07:14:25.050Z,100286.34
2024-04-10T07:16:53.434Z,100290.09
2024-04-10T07:19:20.557Z,100315.28
2024-04-10T07:21:48.834Z,100312.00
2024-04-10T07:24:15.880Z,100326.38
2024-04-10T07:26:44.088Z,100325.34
2024-04-10T07:29:11.400Z,100334.38
2024-04-10T07:31:40.701Z,100333.03
2024-04-10T07:34:08.931Z,100343.94
2024-04-10T07:36:42.282Z,100354.75
2024-04-10T07:39:10.754Z,100354.75
2024-04-10T07:41:39.576Z,100348.16
2024-04-10T07:44:10.636Z,100353.38
2024-04-10T07:46:38.319Z,100355.66
2024-04-10T07:49:05.653Z,100362.41
2024-04-10T07:51:33.487Z,100361.91
2024-04-10T07:54:03.046Z,100369.66
2024-04-10T07:56:31.094Z,100375.47
2024-04-10T07:58:59.935Z,100377.22
2024-04-10T08:01:27.663Z,100378.78
2024-04-10T08:03:55.162Z,100372.97
2024-04-10T08:06:22.822Z,100383.53
2024-04-10T08:08:50.004Z,100389.09
2024-04-10T08:11:23.068Z,100393.84
2024-04-10T08:13:50.657Z,100399.56
2024-04-10T08:16:19.073Z,100397.31
2024-04-10T08:18:47.222Z,100399.69
2024-04-10T08:21:15.885Z,100414.34
2024-04-10T08:23:45.837Z,100419.34
2024-04-10T08:26:17.430Z,100423.50
2024-04-10T08:28:53.251Z,100423.97
2024-04-10T08:31:29.542Z,100443.84
2024-04-10T08:33:57.880Z,100443.03
2024-04-10T08:36:26.250Z,100447.16
2024-04-10T08:38:56.334Z,100461.31
2024-04-10T08:41:24.351Z,100464.88
2024-04-10T08:43:53.367Z,100485.78
2024-04-10T08:46:25.351Z,100475.69
2024-04-10T08:48:55.904Z,100484.53
2024-04-10T08:51:24.944Z,100490.03
2024-04-10T08:53:54.162Z,100483.50
2024-04-10T08:56:21.708Z,100498.59
2024-04-10T08:58:48.970Z,100506.94
2024-04-10T09:01:30.147Z,100506.16
2024-04-10T09:03:57.954Z,100510.16
2024-04-10T09:06:25.740Z,100516.25
2024-04-10T09:08:59.585Z,100512.72
2024-04-10T09:11:27.442Z,100516.81
2024-04-10T09:14:04.252Z,100516.31
2024-04-10T09:16:32.158Z,100507.72
2024-04-10T09:19:28.756Z,100523.31
2024-04-10T09:21:57.149Z,100518.31
2024-04-10T09:24:28.203Z,100524.09
2024-04-10T09:26:56.195Z,100520.78
2024-04-10T09:29:30.894Z,100535.66
2024-04-10T09:32:09.292Z,100532.31
2024-04-10T09:34:38.013Z,100537.44
2024-04-10T09:37:10.040Z,100537.16
2024-04-10T09:39:37.543Z,100532.66
2024-04-10T09:42:10.802Z,100536.59
2024-04-10T09:44:38.221Z,100541.66
2024-04-10T09:47:09.423Z,100538.91
2024-04-10T09:49:41.400Z,100549.50
2024-04-10T09:52:10.654Z,100549.06
2024-04-10T09:54:40.349Z,100566.41
2024-04-10T09:57:10.408Z,100563.91
2024-04-10T09:59:37.914Z,100576.31
2024-04-10T10:02:08.881Z,100575.75
2024-04-10T10:04:40.010Z,100586.09
2024-04-10T10:07:08.736Z,100594.38
2024-04-10T10:09:35.997Z,100571.44
2024-04-10T10:12:03.597Z,100583.91
2024-04-10T10:14:32.443Z,100593.44
2024-04-10T10:17:09.905Z,100587.41
2024-04-10T10:19:38.034Z,100596.50
2024-04-10T10:22:09.946Z,100600.81
2024-04-10T10:24:37.982Z,100595.00
2024-04-10T10:27:05.379Z,100600.53
2024-04-10T10:29:33.181Z,100595.97
2024-04-10T10:32:04.464Z,100584.03
2024-04-10T10:34:32.607Z,100597.00
2024-04-10T10:37:04.302Z,100597.22
2024-04-10T10:39:31.896Z,100603.47
2024-04-10T10:42:05.675Z,100605.78
2024-04-10T10:44:33.698Z,100587.78
2024-04-10T10:47:01.341Z,100605.38
2024-04-10T10:49:28.955Z,100609.28
2024-04-10T10:51:56.761Z,100613.06
2024-04-10T10:54:24.539Z,100605.16
2024-04-10T10:56:52.225Z,100600.84
2024-04-10T10:59:19.980Z,100611.53
2024-04-10T11:01:47.986Z,100610.78
2024-04-10T11:04:16.938Z,100612.69
2024-04-10T11:06:44.473Z,100602.16
2024-04-10T11:09:17.325Z,100603.31
2024-04-10T11:11:45.036Z,100603.88
2024-04-10T11:14:14.966Z,100611.09
2024-04-10T11:16:42.402Z,100606.81
2024-04-10T11:19:10.290Z,100613.53
2024-04-10T11:21:40.372Z,100611.38
2024-04-10T11:24:08.734Z,100608.88
2024-04-10T11:26:35.987Z,100624.31
2024-04-10T11:29:03.585Z,100620.25
2024-04-10T11:31:30.844Z,100620.44
2024-04-10T11:33:59.078Z,100632.91
2024-04-10T11:36:28.828Z,100634.53
2024-04-10T11:38:58.433Z,100635.31
2024-04-10T11:41:28.078Z,100639.88
2024-04-10T11:43:57.640Z,100630.84
2024-04-10T11:46:24.817Z,100645.97
2024-04-10T11:48:52.388Z,100637.53
2024-04-10T11:51:19.702Z,100633.13
2024-04-10T11:53:47.535Z,100646.84
2024-04-10T11:56:17.101Z,100651.53
2024-04-10T11:58:44.752Z,100646.97
2024-04-10T12:01:11.984Z,100650.94
2024-04-10T12:03:39.983Z,100641.72
2024-04-10T12:06:07.581Z,100643.75
2024-04-10T12:08:37.693Z,100641.59
2024-04-10T12:11:06.951Z,100647.44
2024-04-10T12:13:42.244Z,100644.69
2024-04-10T12:16:09.710Z,100658.75
2024-04-10T12:18:39.858Z,100649.31
2024-04-10T12:21:09.886Z,100645.75
2024-04-10T12:23:37.679Z,100642.53
2024-04-10T12:26:09.023Z,100641.63
2024-04-10T12:28:36.863Z,100642.53
2024-04-10T12:31:04.763Z,100641.97
2024-04-10T12:33:32.887Z,100641.38
2024-04-10T12:36:18.623Z,100641.91
2024-04-10T12:38:46.348Z,100642.53
2024-04-10T12:41:13.405Z,100641.31
2024-04-10T12:43:44.222Z,100636.91
2024-04-10T12:46:11.558Z,100640.81
2024-04-10T12:48:39.806Z,100646.25
2024-04-10T12:51:06.916Z,100639.09
2024-04-10T12:53:34.472Z,100645.22
2024-04-10T12:56:01.935Z,100638.19
2024-04-10T12:58:29.645Z,100644.59
2024-04-10T13:01:01.022Z,100641.56
2024-04-10T13:03:33.268Z,100635.81
2024-04-10T13:06:01.038Z,100634.06
2024-04-10T13:08:29.007Z,100638.22
2024-04-10T13:11:07.154Z,100628.06
2024-04-10T13:13:38.326Z,100640.56
2024-04-10T13:16:06.730Z,100624.47
2024-04-10T13:18:34.716Z,100631.25
2024-04-10T13:21:02.551Z,100636.41
2024-04-10T13:23:32.439Z,100647.28
2024-04-10T13:26:08.370Z,100642.59
2024-04-10T13:28:38.358Z,100640.91
2024-04-10T13:31:13.973Z,100637.94
2024-04-10T13:33:43.262Z,100645.63
2024-04-10T13:36:14.501Z,100642.25
2024-04-10T13:38:45.941Z,100654.09
2024-04-10T13:41:13.665Z,100651.13
2024-04-10T13:43:41.527Z,100650.00
2024-04-10T13:46:10.722Z,100653.09
2024-04-10T13:48:39.914Z,100647.28
2024-04-10T13:51:10.033Z,100653.78
2024-04-10T13:53:37.557Z,100651.88
2024-04-10T13:56:05.054Z,100657.75
2024-04-10T13:58:36.300Z,100638.88
2024-04-10T14:01:13.303Z,100664.19
2024-04-10T14:03:42.074Z,100658.84
2024-04-10T14:06:09.839Z,100663.03
2024-04-10T14:08:38.034Z,100658.00
2024-04-10T14:11:06.267Z,100663.34
2024-04-10T14:13:34.668Z,100661.94
2024-04-10T14:16:02.137Z,100662.00
2024-04-10T14:18:30.659Z,100661.97
2024-04-10T14:21:00.784Z,100661.88
2024-04-10T14:23:29.966Z,100669.75
2024-04-10T14:25:57.533Z,100678.06
2024-04-10T14:28:26.735Z,100679.72
2024-04-10T14:30:55.088Z,100663.56
2024-04-10T14:33:22.807Z,100665.03
2024-04-10T14:35:50.413Z,100676.84
2024-04-10T14:38:18.371Z,100679.25
2024-04-10T14:40:47.899Z,100684.53
2024-04-10T14:43:15.526Z,100686.66
2024-04-10T14:45:42.787Z,100684.09
2024-04-10T14:48:12.464Z,100682.19
2024-04-10T14:50:39.800Z,100690.41
2024-04-10T14:53:07.687Z,100686.34
2024-04-10T14:55:35.061Z,100685.53
2024-04-10T14:58:03.217Z,100689.28
2024-04-10T15:00:33.410Z,100695.16
2024-04-10T15:03:01.120Z,100692.00
2024-04-10T15:05:28.317Z,100698.09
2024-04-10T15:07:55.962Z,100695.59
2024-04-10T15:10:25.287Z,100695.47
2024-04-10T15:12:55.263Z,100707.34
2024-04-10T15:15:22.472Z,100701.41
2024-04-10T15:17:50.089Z,100696.34
2024-04-10T15:20:18.209Z,100702.72
2024-04-10T15:22:47.590Z,100706.28
2024-04-10T15:25:14.850Z,100703.84
2024-04-10T15:27:44.643Z,100699.22
2024-04-10T15:30:11.799Z,100699.03
2024-04-10T15:32:39.426Z,100704.06
2024-04-10T15:35:09.743Z,100707.22
2024-04-10T15:37:37.292Z,100700.81
2024-04-10T15:40:04.546Z,100703.41
2024-04-10T15:42:32.190Z,100703.16
2024-04-10T15:45:03.821Z,100699.09
2024-04-10T15:47:31.532Z,100709.06
2024-04-10T15:49:58.971Z,100699.91
2024-04-10T15:52:39.247Z,100697.22
2024-04-10T15:55:16.765Z,100706.81
2024-04-10T15:57:46.640Z,100713.25
2024-04-10T16:00:14.057Z,100711.94
2024-04-10T16:02:41.900Z,100706.16
2024-04-10T16:05:09.617Z,100714.34
2024-04-10T16:07:37.447Z,100725.53
2024-04-10T16:10:04.714Z,100720.50
2024-04-10T16:12:32.360Z,100724.09
2024-04-10T16:14:59.678Z,100723.13
2024-04-10T16:17:27.185Z,100721.13
2024-04-10T16:19:54.248Z,100725.41
2024-04-10T16:22:22.082Z,100720.13
2024-04-10T16:24:52.983Z,100732.56
2024-04-10T16:27:20.635Z,100731.06
2024-04-10T16:29:47.921Z,100731.34
2024-04-10T16:32:15.674Z,100734.94
2024-04-10T16:34:47.438Z,100738.97
2024-04-10T16:37:15.420Z,100732.94
2024-04-10T16:39:42.943Z,100734.44
2024-04-10T16:42:10.770Z,100730.69
2024-04-10T16:44:38.265Z,100729.91
2024-04-10T16:47:05.999Z,100722.13
2024-04-10T16:49:33.739Z,100736.53
2024-04-10T16:52:01.364Z,100727.69
2024-04-10T16:54:28.856Z,100729.22
2024-04-10T16:56:57.007Z,100730.25
2024-04-10T16:59:24.438Z,100727.47
2024-04-10T17:01:54.359Z,100729.53
2024-04-10T17:04:22.424Z,100738.94
2024-04-10T17:06:50.966Z,100733.66
2024-04-10T17:09:18.727Z,100745.03
2024-04-10T17:11:46.554Z,100741.75
2024-04-10T17:14:14.518Z,100742.81
2024-04-10T17:16:42.839Z,100744.34
2024-04-10T17:19:29.219Z,100748.66
2024-04-10T17:22:01.060Z,100753.97
2024-04-10T17:24:28.434Z,100751.44
2024-04-10T17:26:57.431Z,100758.28
2024-04-10T17:29:31.555Z,100759.31
2024-04-10T17:32:00.018Z,100761.34
2024-04-10T17:34:27.928Z,100761.88
2024-04-10T17:36:58.322Z,100768.44
2024-04-10T17:39:27.697Z,100782.09
2024-04-10T17:41:58.003Z,100778.56
2024-04-10T17:44:25.532Z,100777.81
2024-04-10T17:46:56.152Z,100791.19
2024-04-10T17:49:24.706Z,100787.16
2024-04-10T17:51:52.536Z,100799.28
2024-04-10T17:54:20.340Z,100806.63
2024-04-10T17:56:48.263Z,100803.34
2024-04-10T17:59:16.724Z,100809.16
2024-04-10T18:01:45.112Z,100815.22
2024-04-10T18:04:14.643Z,100821.28
2024-04-10T18:06:42.619Z,100818.25
2024-04-10T18:09:10.525Z,100826.34
2024-04-10T18:11:40.460Z,100833.13
2024-04-10T18:14:08.330Z,100834.66
2024-04-10T18:16:37.493Z,100834.41
2024-04-10T18:19:08.348Z,100838.44
2024-04-10T18:21:36.507Z,100828.84
2024-04-10T18:24:04.136Z,100835.94
2024-04-10T18:26:34.934Z,100839.22
2024-04-10T18:29:07.983Z,100851.56
2024-04-10T18:31:39.301Z,100850.31
2024-04-10T18:34:07.165Z,100859.16
2024-04-10T18:36:37.565Z,100861.16
2024-04-10T18:39:06.072Z,100863.19
2024-04-10T18:41:38.124Z,100863.94
2024-04-10T18:44:09.782Z,100871.28
2024-04-10T18:46:38.634Z,100879.59
2024-04-10T18:49:06.704Z,100874.03
2024-04-10T18:51:35.791Z,100871.25
2024-04-10T18:54:07.393Z,100885.91
2024-04-10T18:56:35.894Z,100885.91
2024-04-10T18:59:03.916Z,100894.75
2024-04-10T19:01:32.807Z,100893.50
2024-04-10T19:04:00.246Z,100903.59
2024-04-10T19:06:28.071Z,100917.47
2024-04-10T19:08:55.953Z,100911.91
2024-04-10T19:11:24.578Z,100916.47
2024-04-10T19:13:52.698Z,100911.41
2024-04-10T19:16:23.790Z,100920.00
2024-04-10T19:18:56.585Z,100918.22
2024-04-10T19:21:26.022Z,100928.59
2024-04-10T19:23:54.399Z,100923.75
2024-04-10T19:26:22.985Z,100921.22
2024-04-10T19:28:51.181Z,100925.81
2024-04-10T19:31:20.200Z,100921.25
2024-04-10T19:33:51.767Z,100934.63
2024-04-10T19:36:24.852Z,100925.81
2024-04-10T19:38:55.390Z,100926.25
2024-04-10T19:41:24.697Z,100926.75
2024-04-10T19:43:56.343Z,100923.72
2024-04-10T19:46:26.465Z,100932.31
2024-04-10T19:49:01.614Z,100923.22
2024-04-10T19:51:37.760Z,100933.78
2024-04-10T19:54:06.674Z,100932.03
2024-04-10T19:56:35.511Z,100925.69
2024-04-10T19:59:03.424Z,100936.31
2024-04-10T20:01:33.928Z,100937.56
2024-04-10T20:04:02.757Z,100938.28
2024-04-10T20:06:31.245Z,100937.25
2024-04-10T20:09:05.819Z,100937.50
2024-04-10T20:11:34.491Z,100940.50
2024-04-10T20:14:05.648Z,100943.28
2024-04-10T20:16:36.606Z,100945.53
2024-04-10T20:19:05.301Z,100945.00
2024-04-10T20:21:36.649Z,100951.31
2024-04-10T20:24:07.078Z,100941.72
2024-04-10T20:26:36.242Z,100940.94
2024-04-10T20:29:04.320Z,100951.56
2024-04-10T20:31:34.240Z,100960.88
2024-04-10T20:34:03.676Z,100957.84
2024-04-10T20:36:34.468Z,100952.53
2024-04-10T20:39:02.755Z,100954.03
2024-04-10T20:41:32.830Z,100951.00
2024-04-10T20:44:00.754Z,100957.06
2024-04-10T20:46:29.018Z,100947.25
2024-04-10T20:48:57.304Z,100948.97
2024-04-10T20:51:28.039Z,100956.06
2024-04-10T20:53:56.289Z,100958.06
2024-04-10T20:56:25.144Z,100968.13
2024-04-10T20:58:52.478Z,100960.34
2024-04-10T21:01:20.777Z,100964.84
2024-04-10T21:03:49.049Z,100964.84
2024-04-10T21:06:17.661Z,100963.09
2024-04-10T21:09:06.698Z,100971.91
2024-04-10T21:11:55.460Z,100970.63
2024-04-10T21:14:42.144Z,100968.13
2024-04-10T21:17:28.616Z,100964.38
2024-04-10T21:20:14.664Z,100965.34
2024-04-10T21:23:01.148Z,100968.41
2024-04-10T21:25:51.633Z,100969.16
2024-04-10T21:28:37.926Z,100972.44
2024-04-10T21:31:24.534Z,100983.53
2024-04-10T21:34:11.552Z,100983.25
2024-04-10T21:36:57.842Z,100989.53
2024-04-10T21:39:44.753Z,100987.03
2024-04-10T21:42:30.811Z,100982.72
2024-04-10T21:45:17.154Z,100987.53
2024-04-10T21:48:03.004Z,100984.25
2024-04-10T21:50:49.690Z,100975.94
2024-04-10T21:53:35.642Z,100983.72
2024-04-10T21:56:25.857Z,100991.28
2024-04-10T21:59:12.320Z,100998.59
2024-04-10T22:02:06.005Z,101009.69
2024-04-10T22:04:57.240Z,101009.69
2024-04-10T22:07:45.577Z,100995.59
2024-04-10T22:10:15.156Z,100998.66
2024-04-10T22:12:43.018Z,101010.00
2024-04-10T22:15:13.538Z,101014.31
2024-04-10T22:18:02.140Z,101017.34
2024-04-10T22:20:50.162Z,101017.13
2024-04-10T22:23:36.298Z,101009.84
2024-04-10T22:26:03.471Z,101017.94
2024-04-10T22:28:32.137Z,101019.94
2024-04-10T22:31:02.045Z,101018.44
2024-04-10T22:33:29.701Z,101020.25
2024-04-10T22:35:57.526Z,101020.00
2024-04-10T22:38:25.513Z,101020.75
2024-04-10T22:40:52.702Z,101023.31
2024-04-10T22:43:23.845Z,101022.25
2024-04-10T22:45:51.156Z,101021.50
2024-04-10T22:48:19.200Z,101026.53
2024-04-10T22:50:46.774Z,101022.53
2024-04-10T22:53:16.339Z,101030.34
2024-04-10T22:55:43.537Z,101036.69
2024-04-10T22:58:11.067Z,101033.91
2024-04-10T23:00:38.111Z,101028.63
2024-04-10T23:03:06.074Z,101032.91
2024-04-10T23:05:45.421Z,101025.31
2024-04-10T23:10:49.834Z,101035.91
2024-04-10T23:13:17.482Z,101023.31
2024-04-10T23:15:44.654Z,101025.06
2024-04-10T23:18:21.214Z,101032.63
2024-04-10T23:20:59.393Z,101024.03
2024-04-10T23:23:27.108Z,101026.06
2024-04-10T23:25:54.196Z,101030.84
2024-04-10T23:28:21.546Z,101032.38
2024-04-10T23:30:48.750Z,101034.13
2024-04-10T23:33:19.541Z,101033.38
2024-04-10T23:35:47.358Z,101036.91
2024-04-10T23:38:15.091Z,101043.69
2024-04-10T23:40:43.596Z,101040.88
2024-04-10T23:43:13.635Z,101044.94
2024-04-10T23:45:40.669Z,101044.16
2024-04-10T23:48:12.934Z,101037.88
2024-04-10T23:50:40.481Z,101040.16
2024-04-10T23:53:08.009Z,101034.59
2024-04-10T23:55:35.075Z,101040.16
2024-04-10T23:58:05.001Z,101035.59
